sensor_id;sensor_type;location;lat;lon;timestamp;P1;P2;P0
65556;PMS3003;52200;53.490;14.376;2023-11-21T00:01:25;28.25;19.50;9.00
65556;PMS3003;52200;53.490;14.376;2023-11-21T00:03:51;26.00;21.75;9.00
65556;PMS3003;52200;53.490;14.376;2023-11-21T00:06:19;19.20;17.80;7.20
65556;PMS3003;52200;53.490;14.376;2023-11-21T00:08:46;20.20;18.80;9.00
65556;PMS3003;52200;53.490;14.376;2023-11-21T00:11:11;23.75;18.50;8.50
65556;PMS3003;52200;53.490;14.376;2023-11-21T00:13:36;19.50;18.25;9.00
65556;PMS3003;52200;53.490;14.376;2023-11-21T00:16:03;23.80;20.80;8.60
65556;PMS3003;52200;53.490;14.376;2023-11-21T00:18:29;22.00;19.20;8.60
65556;PMS3003;52200;53.490;14.376;2023-11-21T00:20:55;25.25;21.50;9.00
65556;PMS3003;52200;53.490;14.376;2023-11-21T00:23:20;23.75;21.25;8.75
65556;PMS3003;52200;53.490;14.376;2023-11-21T00:25:45;23.25;22.00;9.25
65556;PMS3003;52200;53.490;14.376;2023-11-21T00:28:11;23.00;21.25;9.50
65556;PMS3003;52200;53.490;14.376;2023-11-21T00:30:36;24.25;18.75;9.25
65556;PMS3003;52200;53.490;14.376;2023-11-21T00:33:02;23.00;19.00;9.00
65556;PMS3003;52200;53.490;14.376;2023-11-21T00:35:27;26.25;18.25;10.75
65556;PMS3003;52200;53.490;14.376;2023-11-21T00:37:53;21.75;18.25;10.00
65556;PMS3003;52200;53.490;14.376;2023-11-21T00:40:18;26.50;23.00;10.00
65556;PMS3003;52200;53.490;14.376;2023-11-21T00:42:47;17.60;16.60;7.80
65556;PMS3003;52200;53.490;14.376;2023-11-21T00:45:12;21.75;19.00;9.25
65556;PMS3003;52200;53.490;14.376;2023-11-21T00:47:38;20.50;18.00;8.50
65556;PMS3003;52200;53.490;14.376;2023-11-21T00:50:03;27.50;22.00;10.00
65556;PMS3003;52200;53.490;14.376;2023-11-21T00:52:31;21.40;19.20;9.00
65556;PMS3003;52200;53.490;14.376;2023-11-21T00:54:57;24.80;18.60;7.40
65556;PMS3003;52200;53.490;14.376;2023-11-21T00:57:25;27.00;20.80;10.00
65556;PMS3003;52200;53.490;14.376;2023-11-21T00:59:51;26.40;17.60;10.00
65556;PMS3003;52200;53.490;14.376;2023-11-21T01:02:16;23.75;21.50;10.25
65556;PMS3003;52200;53.490;14.376;2023-11-21T01:04:41;21.75;17.00;8.50
65556;PMS3003;52200;53.490;14.376;2023-11-21T01:07:07;26.00;21.50;9.50
65556;PMS3003;52200;53.490;14.376;2023-11-21T01:09:32;25.00;21.25;10.00
65556;PMS3003;52200;53.490;14.376;2023-11-21T01:11:58;26.25;21.00;9.00
65556;PMS3003;52200;53.490;14.376;2023-11-21T01:14:24;22.80;18.60;7.00
65556;PMS3003;52200;53.490;14.376;2023-11-21T01:16:51;24.80;21.60;9.60
65556;PMS3003;52200;53.490;14.376;2023-11-21T01:19:17;23.00;17.00;7.00
65556;PMS3003;52200;53.490;14.376;2023-11-21T01:21:42;20.75;15.75;9.00
65556;PMS3003;52200;53.490;14.376;2023-11-21T01:24:08;19.00;17.00;9.00
65556;PMS3003;52200;53.490;14.376;2023-11-21T01:26:33;26.50;21.25;9.00
65556;PMS3003;52200;53.490;14.376;2023-11-21T01:28:59;24.50;20.50;8.75
65556;PMS3003;52200;53.490;14.376;2023-11-21T01:31:24;24.75;20.25;9.00
65556;PMS3003;52200;53.490;14.376;2023-11-21T01:33:54;25.40;17.00;6.80
65556;PMS3003;52200;53.490;14.376;2023-11-21T01:36:20;22.80;15.60;8.40
65556;PMS3003;52200;53.490;14.376;2023-11-21T01:38:46;23.40;18.00;7.80
65556;PMS3003;52200;53.490;14.376;2023-11-21T01:41:13;23.60;17.80;7.60
65556;PMS3003;52200;53.490;14.376;2023-11-21T01:43:38;18.80;15.60;7.00
65556;PMS3003;52200;53.490;14.376;2023-11-21T01:46:04;20.25;18.00;8.50
65556;PMS3003;52200;53.490;14.376;2023-11-21T01:48:31;17.80;12.80;6.00
65556;PMS3003;52200;53.490;14.376;2023-11-21T01:50:57;20.20;17.60;8.40
65556;PMS3003;52200;53.490;14.376;2023-11-21T01:53:26;18.40;13.60;6.00
65556;PMS3003;52200;53.490;14.376;2023-11-21T01:55:53;19.40;16.00;6.40
65556;PMS3003;52200;53.490;14.376;2023-11-21T01:58:21;19.60;17.40;7.60
65556;PMS3003;52200;53.490;14.376;2023-11-21T02:00:47;21.20;13.80;7.80
65556;PMS3003;52200;53.490;14.376;2023-11-21T02:03:15;20.80;16.80;6.80
65556;PMS3003;52200;53.490;14.376;2023-11-21T02:05:41;18.20;16.80;6.00
65556;PMS3003;52200;53.490;14.376;2023-11-21T02:08:07;17.00;15.75;6.75
65556;PMS3003;52200;53.490;14.376;2023-11-21T02:10:34;22.00;17.80;7.80
65556;PMS3003;52200;53.490;14.376;2023-11-21T02:13:02;19.20;13.40;6.80
65556;PMS3003;52200;53.490;14.376;2023-11-21T02:15:27;19.80;16.00;7.60
65556;PMS3003;52200;53.490;14.376;2023-11-21T02:17:54;18.00;16.80;8.00
65556;PMS3003;52200;53.490;14.376;2023-11-21T02:20:22;17.40;12.80;5.80
65556;PMS3003;52200;53.490;14.376;2023-11-21T02:22:56;24.20;16.40;7.80
65556;PMS3003;52200;53.490;14.376;2023-11-21T02:25:28;17.40;13.20;5.40
65556;PMS3003;52200;53.490;14.376;2023-11-21T02:27:55;20.40;17.20;7.20
65556;PMS3003;52200;53.490;14.376;2023-11-21T02:30:25;21.80;19.40;6.80
65556;PMS3003;52200;53.490;14.376;2023-11-21T02:32:51;23.40;18.20;7.80
65556;PMS3003;52200;53.490;14.376;2023-11-21T02:35:21;20.20;15.40;6.80
65556;PMS3003;52200;53.490;14.376;2023-11-21T02:37:47;21.00;19.00;7.75
65556;PMS3003;52200;53.490;14.376;2023-11-21T02:40:13;21.60;19.60;8.00
65556;PMS3003;52200;53.490;14.376;2023-11-21T02:42:42;18.80;17.00;6.80
65556;PMS3003;52200;53.490;14.376;2023-11-21T02:45:12;20.80;17.20;7.80
65556;PMS3003;52200;53.490;14.376;2023-11-21T02:47:39;23.40;17.80;8.60
65556;PMS3003;52200;53.490;14.376;2023-11-21T02:50:05;19.25;16.50;6.00
65556;PMS3003;52200;53.490;14.376;2023-11-21T02:52:33;20.60;16.20;6.80
65556;PMS3003;52200;53.490;14.376;2023-11-21T02:54:58;21.25;14.00;6.50
65556;PMS3003;52200;53.490;14.376;2023-11-21T02:57:24;22.50;15.75;7.75
65556;PMS3003;52200;53.490;14.376;2023-11-21T02:59:49;17.25;13.00;6.00
65556;PMS3003;52200;53.490;14.376;2023-11-21T03:02:15;19.25;16.25;7.25
65556;PMS3003;52200;53.490;14.376;2023-11-21T03:04:40;16.50;12.50;6.00
65556;PMS3003;52200;53.490;14.376;2023-11-21T03:07:07;25.20;16.20;6.40
65556;PMS3003;52200;53.490;14.376;2023-11-21T03:09:34;18.00;14.60;6.00
65556;PMS3003;52200;53.490;14.376;2023-11-21T03:11:59;20.00;17.00;6.00
65556;PMS3003;52200;53.490;14.376;2023-11-21T03:14:25;21.00;16.25;7.25
65556;PMS3003;52200;53.490;14.376;2023-11-21T03:16:50;25.75;21.00;8.75
65556;PMS3003;52200;53.490;14.376;2023-11-21T03:19:16;19.75;15.00;8.00
65556;PMS3003;52200;53.490;14.376;2023-11-21T03:21:42;22.20;15.40;6.20
65556;PMS3003;52200;53.490;14.376;2023-11-21T03:24:07;20.00;14.25;7.25
65556;PMS3003;52200;53.490;14.376;2023-11-21T03:26:33;25.00;16.75;8.00
65556;PMS3003;52200;53.490;14.376;2023-11-21T03:28:58;24.50;19.50;9.00
65556;PMS3003;52200;53.490;14.376;2023-11-21T03:31:24;22.50;18.50;6.50
65556;PMS3003;52200;53.490;14.376;2023-11-21T03:33:49;20.25;17.00;8.00
65556;PMS3003;52200;53.490;14.376;2023-11-21T03:36:14;21.00;15.25;7.00
65556;PMS3003;52200;53.490;14.376;2023-11-21T03:38:40;21.50;16.50;7.00
65556;PMS3003;52200;53.490;14.376;2023-11-21T03:41:06;27.80;16.20;8.00
65556;PMS3003;52200;53.490;14.376;2023-11-21T03:43:32;21.20;17.00;8.00
65556;PMS3003;52200;53.490;14.376;2023-11-21T03:45:58;18.25;16.00;6.50
65556;PMS3003;52200;53.490;14.376;2023-11-21T03:48:23;21.00;14.00;8.00
65556;PMS3003;52200;53.490;14.376;2023-11-21T03:50:49;20.50;16.25;8.00
65556;PMS3003;52200;53.490;14.376;2023-11-21T03:53:14;22.50;15.75;7.00
65556;PMS3003;52200;53.490;14.376;2023-11-21T03:55:39;19.00;15.25;8.00
65556;PMS3003;52200;53.490;14.376;2023-11-21T03:58:05;22.25;17.00;6.00
65556;PMS3003;52200;53.490;14.376;2023-11-21T04:00:30;26.00;19.00;8.25
65556;PMS3003;52200;53.490;14.376;2023-11-21T04:02:56;21.75;16.50;6.00
65556;PMS3003;52200;53.490;14.376;2023-11-21T04:05:21;21.50;13.25;6.00
65556;PMS3003;52200;53.490;14.376;2023-11-21T04:07:50;20.80;18.60;8.40
65556;PMS3003;52200;53.490;14.376;2023-11-21T04:10:18;19.80;17.00;7.80
65556;PMS3003;52200;53.490;14.376;2023-11-21T04:12:44;19.80;17.00;5.80
65556;PMS3003;52200;53.490;14.376;2023-11-21T04:15:10;25.50;17.75;8.25
65556;PMS3003;52200;53.490;14.376;2023-11-21T04:17:37;23.00;17.60;9.00
65556;PMS3003;52200;53.490;14.376;2023-11-21T04:20:03;24.00;17.00;8.50
65556;PMS3003;52200;53.490;14.376;2023-11-21T04:22:33;27.80;17.40;6.00
65556;PMS3003;52200;53.490;14.376;2023-11-21T04:24:58;24.25;18.00;8.00
65556;PMS3003;52200;53.490;14.376;2023-11-21T04:27:24;20.25;13.50;6.75
65556;PMS3003;52200;53.490;14.376;2023-11-21T04:29:49;21.75;16.00;8.00
65556;PMS3003;52200;53.490;14.376;2023-11-21T04:32:14;23.00;19.75;8.50
65556;PMS3003;52200;53.490;14.376;2023-11-21T04:34:41;22.60;16.80;7.80
65556;PMS3003;52200;53.490;14.376;2023-11-21T04:37:06;24.25;18.50;7.25
65556;PMS3003;52200;53.490;14.376;2023-11-21T04:39:32;21.25;18.50;8.00
65556;PMS3003;52200;53.490;14.376;2023-11-21T04:41:57;28.25;21.50;8.00
65556;PMS3003;52200;53.490;14.376;2023-11-21T04:44:22;17.75;16.75;8.25
65556;PMS3003;52200;53.490;14.376;2023-11-21T04:46:48;21.25;17.50;8.75
65556;PMS3003;52200;53.490;14.376;2023-11-21T04:49:13;21.25;18.25;9.00
65556;PMS3003;52200;53.490;14.376;2023-11-21T04:51:39;26.60;20.60;8.80
65556;PMS3003;52200;53.490;14.376;2023-11-21T04:54:04;25.25;19.75;9.00
65556;PMS3003;52200;53.490;14.376;2023-11-21T04:56:30;29.80;21.00;9.60
65556;PMS3003;52200;53.490;14.376;2023-11-21T04:58:56;20.25;16.00;6.25
65556;PMS3003;52200;53.490;14.376;2023-11-21T05:01:21;21.75;18.00;9.00
65556;PMS3003;52200;53.490;14.376;2023-11-21T05:03:47;19.40;17.00;8.00
65556;PMS3003;52200;53.490;14.376;2023-11-21T05:06:14;23.20;19.40;6.00
65556;PMS3003;52200;53.490;14.376;2023-11-21T05:08:39;23.75;16.75;8.50
65556;PMS3003;52200;53.490;14.376;2023-11-21T05:11:05;21.60;17.40;7.80
65556;PMS3003;52200;53.490;14.376;2023-11-21T05:13:33;23.20;17.00;8.40
65556;PMS3003;52200;53.490;14.376;2023-11-21T05:15:59;22.80;18.20;6.80
65556;PMS3003;52200;53.490;14.376;2023-11-21T05:18:25;22.50;18.00;6.00
65556;PMS3003;52200;53.490;14.376;2023-11-21T05:20:54;22.20;18.60;8.00
65556;PMS3003;52200;53.490;14.376;2023-11-21T05:23:20;24.00;21.00;9.00
65556;PMS3003;52200;53.490;14.376;2023-11-21T05:25:46;27.75;22.75;8.50
65556;PMS3003;52200;53.490;14.376;2023-11-21T05:28:12;21.75;21.25;9.00
65556;PMS3003;52200;53.490;14.376;2023-11-21T05:30:37;26.00;23.60;8.80
65556;PMS3003;52200;53.490;14.376;2023-11-21T05:33:05;20.40;19.40;7.20
65556;PMS3003;52200;53.490;14.376;2023-11-21T05:35:31;24.00;20.25;6.50
65556;PMS3003;52200;53.490;14.376;2023-11-21T05:37:56;25.00;21.00;7.50
65556;PMS3003;52200;53.490;14.376;2023-11-21T05:40:22;22.50;20.00;8.00
65556;PMS3003;52200;53.490;14.376;2023-11-21T05:42:47;20.50;19.50;9.00
65556;PMS3003;52200;53.490;14.376;2023-11-21T05:45:13;20.50;17.50;9.00
65556;PMS3003;52200;53.490;14.376;2023-11-21T05:47:42;23.20;18.20;8.00
65556;PMS3003;52200;53.490;14.376;2023-11-21T05:50:11;25.40;21.00;7.60
65556;PMS3003;52200;53.490;14.376;2023-11-21T05:52:39;25.00;21.20;9.00
65556;PMS3003;52200;53.490;14.376;2023-11-21T05:55:09;25.80;19.00;9.60
65556;PMS3003;52200;53.490;14.376;2023-11-21T05:57:35;23.80;17.00;7.20
65556;PMS3003;52200;53.490;14.376;2023-11-21T06:00:02;27.00;22.80;10.00
65556;PMS3003;52200;53.490;14.376;2023-11-21T06:02:48;23.00;16.20;8.00
65556;PMS3003;52200;53.490;14.376;2023-11-21T06:05:18;22.60;19.60;8.00
65556;PMS3003;52200;53.490;14.376;2023-11-21T06:07:45;23.60;19.80;10.60
65556;PMS3003;52200;53.490;14.376;2023-11-21T06:10:11;38.00;28.40;14.20
65556;PMS3003;52200;53.490;14.376;2023-11-21T06:12:39;36.40;27.20;12.80
65556;PMS3003;52200;53.490;14.376;2023-11-21T06:15:06;49.40;34.20;14.80
65556;PMS3003;52200;53.490;14.376;2023-11-21T06:17:38;39.60;31.00;15.60
65556;PMS3003;52200;53.490;14.376;2023-11-21T06:20:04;54.40;41.20;20.00
65556;PMS3003;52200;53.490;14.376;2023-11-21T06:22:37;61.20;46.60;21.80
65556;PMS3003;52200;53.490;14.376;2023-11-21T06:25:04;65.60;49.20;23.20
65556;PMS3003;52200;53.490;14.376;2023-11-21T06:27:34;82.60;53.80;26.00
65556;PMS3003;52200;53.490;14.376;2023-11-21T06:30:03;94.75;65.25;35.50
65556;PMS3003;52200;53.490;14.376;2023-11-21T06:32:29;91.00;65.00;33.25
65556;PMS3003;52200;53.490;14.376;2023-11-21T06:34:55;91.00;62.25;32.00
65556;PMS3003;52200;53.490;14.376;2023-11-21T06:37:24;92.80;60.20;32.80
65556;PMS3003;52200;53.490;14.376;2023-11-21T06:39:50;85.60;60.00;32.60
65556;PMS3003;52200;53.490;14.376;2023-11-21T06:42:17;88.75;64.00;35.75
65556;PMS3003;52200;53.490;14.376;2023-11-21T06:44:44;90.75;66.75;35.75
65556;PMS3003;52200;53.490;14.376;2023-11-21T06:47:10;87.25;63.00;35.00
65556;PMS3003;52200;53.490;14.376;2023-11-21T06:49:35;76.00;58.00;30.50
65556;PMS3003;52200;53.490;14.376;2023-11-21T06:52:01;67.50;53.25;26.25
65556;PMS3003;52200;53.490;14.376;2023-11-21T06:54:28;53.20;38.80;17.20
65556;PMS3003;52200;53.490;14.376;2023-11-21T06:56:54;42.80;35.20;17.20
65556;PMS3003;52200;53.490;14.376;2023-11-21T06:59:21;42.00;30.40;16.00
65556;PMS3003;52200;53.490;14.376;2023-11-21T07:01:47;41.75;33.50;15.00
65556;PMS3003;52200;53.490;14.376;2023-11-21T07:04:12;30.75;26.25;11.75
65556;PMS3003;52200;53.490;14.376;2023-11-21T07:06:38;29.00;22.75;11.75
65556;PMS3003;52200;53.490;14.376;2023-11-21T07:09:03;34.25;29.25;12.00
65556;PMS3003;52200;53.490;14.376;2023-11-21T07:11:29;26.25;23.50;11.00
65556;PMS3003;52200;53.490;14.376;2023-11-21T07:13:54;30.00;26.50;12.50
65556;PMS3003;52200;53.490;14.376;2023-11-21T07:16:20;39.50;33.50;14.75
65556;PMS3003;52200;53.490;14.376;2023-11-21T07:18:46;44.40;40.00;15.80
65556;PMS3003;52200;53.490;14.376;2023-11-21T07:21:11;42.00;36.25;20.25
65556;PMS3003;52200;53.490;14.376;2023-11-21T07:23:37;48.75;36.75;20.25
65556;PMS3003;52200;53.490;14.376;2023-11-21T07:26:03;47.60;40.00;18.00
65556;PMS3003;52200;53.490;14.376;2023-11-21T07:28:33;61.80;46.40;21.60
65556;PMS3003;52200;53.490;14.376;2023-11-21T07:30:59;56.25;41.75;21.25
65556;PMS3003;52200;53.490;14.376;2023-11-21T07:33:25;64.25;45.00;23.00
65556;PMS3003;52200;53.490;14.376;2023-11-21T07:35:50;83.75;57.25;30.00
65556;PMS3003;52200;53.490;14.376;2023-11-21T07:38:16;81.80;57.20;30.00
65556;PMS3003;52200;53.490;14.376;2023-11-21T07:40:42;77.80;54.00;28.80
65556;PMS3003;52200;53.490;14.376;2023-11-21T07:43:08;83.25;58.75;30.00
65556;PMS3003;52200;53.490;14.376;2023-11-21T07:45:34;71.50;53.00;27.00
65556;PMS3003;52200;53.490;14.376;2023-11-21T07:47:59;72.00;53.75;29.50
65556;PMS3003;52200;53.490;14.376;2023-11-21T07:50:28;83.40;58.60;32.80
65556;PMS3003;52200;53.490;14.376;2023-11-21T07:52:53;77.75;56.25;30.00
65556;PMS3003;52200;53.490;14.376;2023-11-21T07:55:19;71.00;51.00;27.00
65556;PMS3003;52200;53.490;14.376;2023-11-21T07:57:45;75.50;59.50;31.50
65556;PMS3003;52200;53.490;14.376;2023-11-21T08:00:10;56.25;43.25;22.25
65556;PMS3003;52200;53.490;14.376;2023-11-21T08:02:37;57.00;43.60;21.80
65556;PMS3003;52200;53.490;14.376;2023-11-21T08:05:11;44.00;33.40;18.60
65556;PMS3003;52200;53.490;14.376;2023-11-21T08:07:37;56.20;44.00;24.20
65556;PMS3003;52200;53.490;14.376;2023-11-21T08:10:03;66.60;49.00;26.20
65556;PMS3003;52200;53.490;14.376;2023-11-21T08:12:30;59.80;43.00;23.60
65556;PMS3003;52200;53.490;14.376;2023-11-21T08:14:56;66.00;48.75;26.25
65556;PMS3003;52200;53.490;14.376;2023-11-21T08:17:21;63.75;49.00;27.00
65556;PMS3003;52200;53.490;14.376;2023-11-21T08:19:47;69.80;52.20;27.00
65556;PMS3003;52200;53.490;14.376;2023-11-21T08:22:15;76.80;56.60;29.60
65556;PMS3003;52200;53.490;14.376;2023-11-21T08:24:42;86.25;61.75;34.00
65556;PMS3003;52200;53.490;14.376;2023-11-21T08:27:08;91.00;62.50;35.00
65556;PMS3003;52200;53.490;14.376;2023-11-21T08:29:34;86.50;64.00;35.50
65556;PMS3003;52200;53.490;14.376;2023-11-21T08:32:01;89.00;60.25;36.00
65556;PMS3003;52200;53.490;14.376;2023-11-21T08:34:27;101.00;72.00;37.75
65556;PMS3003;52200;53.490;14.376;2023-11-21T08:36:53;107.50;87.50;46.50
65556;PMS3003;52200;53.490;14.376;2023-11-21T08:39:19;90.75;66.75;38.00
65556;PMS3003;52200;53.490;14.376;2023-11-21T08:41:44;100.00;71.67;40.00
65556;PMS3003;52200;53.490;14.376;2023-11-21T08:44:10;113.00;81.00;42.50
65556;PMS3003;52200;53.490;14.376;2023-11-21T08:46:36;86.00;61.00;32.00
65556;PMS3003;52200;53.490;14.376;2023-11-21T08:49:02;84.60;58.80;32.40
65556;PMS3003;52200;53.490;14.376;2023-11-21T08:51:28;77.00;56.00;30.00
65556;PMS3003;52200;53.490;14.376;2023-11-21T08:53:53;96.00;68.00;35.67
65556;PMS3003;52200;53.490;14.376;2023-11-21T08:56:19;99.33;67.33;39.00
65556;PMS3003;52200;53.490;14.376;2023-11-21T08:58:45;100.50;70.00;37.25
65556;PMS3003;52200;53.490;14.376;2023-11-21T09:01:12;96.50;69.50;37.75
65556;PMS3003;52200;53.490;14.376;2023-11-21T09:03:38;92.00;64.00;34.50
65556;PMS3003;52200;53.490;14.376;2023-11-21T09:06:03;83.50;58.00;32.00
65556;PMS3003;52200;53.490;14.376;2023-11-21T09:08:29;83.20;55.20;29.60
65556;PMS3003;52200;53.490;14.376;2023-11-21T09:10:55;79.75;54.25;28.50
65556;PMS3003;52200;53.490;14.376;2023-11-21T09:13:20;72.50;52.25;27.00
65556;PMS3003;52200;53.490;14.376;2023-11-21T09:15:45;74.25;51.50;27.00
65556;PMS3003;52200;53.490;14.376;2023-11-21T09:18:14;64.00;47.00;24.00
65556;PMS3003;52200;53.490;14.376;2023-11-21T09:20:40;49.40;39.40;22.40
65556;PMS3003;52200;53.490;14.376;2023-11-21T09:23:07;54.40;41.20;21.20
65556;PMS3003;52200;53.490;14.376;2023-11-21T09:25:33;56.75;45.75;25.25
65556;PMS3003;52200;53.490;14.376;2023-11-21T09:27:58;65.00;47.75;27.00
65556;PMS3003;52200;53.490;14.376;2023-11-21T09:30:24;61.00;46.60;26.60
65556;PMS3003;52200;53.490;14.376;2023-11-21T09:32:50;59.50;46.00;22.00
65556;PMS3003;52200;53.490;14.376;2023-11-21T09:35:17;53.80;42.00;22.40
65556;PMS3003;52200;53.490;14.376;2023-11-21T09:37:43;51.00;39.20;20.60
65556;PMS3003;52200;53.490;14.376;2023-11-21T09:40:11;66.80;45.40;22.80
65556;PMS3003;52200;53.490;14.376;2023-11-21T09:42:54;67.60;45.80;24.40
65556;PMS3003;52200;53.490;14.376;2023-11-21T09:45:24;60.40;46.40;24.60
65556;PMS3003;52200;53.490;14.376;2023-11-21T09:47:53;55.60;42.00;22.00
65556;PMS3003;52200;53.490;14.376;2023-11-21T09:50:22;62.00;45.00;22.80
65556;PMS3003;52200;53.490;14.376;2023-11-21T09:55:41;69.80;50.80;28.00
65556;PMS3003;52200;53.490;14.376;2023-11-21T09:58:09;69.20;49.60;27.80
65556;PMS3003;52200;53.490;14.376;2023-11-21T10:00:38;46.80;36.40;16.00
65556;PMS3003;52200;53.490;14.376;2023-11-21T10:03:09;44.20;32.80;17.60
65556;PMS3003;52200;53.490;14.376;2023-11-21T10:05:36;46.00;36.00;18.60
65556;PMS3003;52200;53.490;14.376;2023-11-21T10:08:09;51.20;40.20;21.20
65556;PMS3003;52200;53.490;14.376;2023-11-21T10:10:35;47.80;34.20;17.60
65556;PMS3003;52200;53.490;14.376;2023-11-21T10:13:03;44.00;34.60;17.60
65556;PMS3003;52200;53.490;14.376;2023-11-21T10:15:35;48.40;35.00;17.60
65556;PMS3003;52200;53.490;14.376;2023-11-21T10:18:04;43.40;33.40;16.60
65556;PMS3003;52200;53.490;14.376;2023-11-21T10:20:32;40.60;31.20;17.20
65556;PMS3003;52200;53.490;14.376;2023-11-21T10:23:02;43.60;34.40;19.20
65556;PMS3003;52200;53.490;14.376;2023-11-21T10:25:29;51.40;41.60;23.80
65556;PMS3003;52200;53.490;14.376;2023-11-21T10:27:59;49.20;35.60;19.00
65556;PMS3003;52200;53.490;14.376;2023-11-21T10:33:03;40.60;33.20;17.80
65556;PMS3003;52200;53.490;14.376;2023-11-21T10:38:07;54.20;39.80;19.40
65556;PMS3003;52200;53.490;14.376;2023-11-21T10:40:37;59.20;44.60;25.60
65556;PMS3003;52200;53.490;14.376;2023-11-21T10:43:10;43.40;31.60;16.60
65556;PMS3003;52200;53.490;14.376;2023-11-21T10:45:37;47.40;33.20;17.80
65556;PMS3003;52200;53.490;14.376;2023-11-21T10:48:07;38.80;29.40;16.00
65556;PMS3003;52200;53.490;14.376;2023-11-21T10:50:37;41.00;29.60;16.40
65556;PMS3003;52200;53.490;14.376;2023-11-21T10:53:03;39.60;30.80;17.40
65556;PMS3003;52200;53.490;14.376;2023-11-21T10:55:30;48.00;36.20;17.80
65556;PMS3003;52200;53.490;14.376;2023-11-21T10:57:58;49.20;36.00;19.00
65556;PMS3003;52200;53.490;14.376;2023-11-21T11:00:25;43.40;35.80;18.80
65556;PMS3003;52200;53.490;14.376;2023-11-21T11:02:52;38.20;28.20;14.80
65556;PMS3003;52200;53.490;14.376;2023-11-21T11:05:22;34.00;25.80;13.40
65556;PMS3003;52200;53.490;14.376;2023-11-21T11:07:50;47.60;31.80;17.80
65556;PMS3003;52200;53.490;14.376;2023-11-21T11:10:24;38.60;29.60;17.00
65556;PMS3003;52200;53.490;14.376;2023-11-21T11:12:52;48.20;38.00;20.40
65556;PMS3003;52200;53.490;14.376;2023-11-21T11:15:19;50.00;37.40;19.40
65556;PMS3003;52200;53.490;14.376;2023-11-21T11:17:45;49.60;36.20;18.80
65556;PMS3003;52200;53.490;14.376;2023-11-21T11:20:12;45.40;34.80;19.80
65556;PMS3003;52200;53.490;14.376;2023-11-21T11:22:48;46.40;35.40;19.00
65556;PMS3003;52200;53.490;14.376;2023-11-21T11:28:42;46.00;35.20;15.00
65556;PMS3003;52200;53.490;14.376;2023-11-21T11:31:39;43.00;26.60;14.00
65556;PMS3003;52200;53.490;14.376;2023-11-21T11:34:23;43.40;33.20;16.60
65556;PMS3003;52200;53.490;14.376;2023-11-21T11:37:02;42.40;28.40;16.00
65556;PMS3003;52200;53.490;14.376;2023-11-21T11:39:35;51.80;33.60;17.40
65556;PMS3003;52200;53.490;14.376;2023-11-21T11:42:07;45.60;36.60;18.40
65556;PMS3003;52200;53.490;14.376;2023-11-21T11:47:19;34.80;27.20;13.00
65556;PMS3003;52200;53.490;14.376;2023-11-21T11:50:08;39.80;30.40;15.00
65556;PMS3003;52200;53.490;14.376;2023-11-21T11:52:42;36.40;30.60;17.60
65556;PMS3003;52200;53.490;14.376;2023-11-21T11:55:09;45.60;31.40;14.60
65556;PMS3003;52200;53.490;14.376;2023-11-21T11:57:37;36.00;25.80;15.40
65556;PMS3003;52200;53.490;14.376;2023-11-21T12:02:48;32.40;25.40;10.80
65556;PMS3003;52200;53.490;14.376;2023-11-21T12:05:15;26.40;21.60;13.00
65556;PMS3003;52200;53.490;14.376;2023-11-21T12:07:55;29.80;18.80;10.80
65556;PMS3003;52200;53.490;14.376;2023-11-21T12:10:25;29.20;23.80;10.80
65556;PMS3003;52200;53.490;14.376;2023-11-21T12:12:55;34.80;27.20;14.80
65556;PMS3003;52200;53.490;14.376;2023-11-21T12:15:28;29.00;22.00;12.00
65556;PMS3003;52200;53.490;14.376;2023-11-21T12:17:55;28.40;23.20;13.00
65556;PMS3003;52200;53.490;14.376;2023-11-21T12:20:21;41.50;34.25;16.00
65556;PMS3003;52200;53.490;14.376;2023-11-21T12:22:52;36.60;24.80;10.80
65556;PMS3003;52200;53.490;14.376;2023-11-21T12:25:22;30.60;22.20;10.60
65556;PMS3003;52200;53.490;14.376;2023-11-21T12:27:50;39.40;28.40;12.60
65556;PMS3003;52200;53.490;14.376;2023-11-21T12:30:21;30.40;22.60;12.20
65556;PMS3003;52200;53.490;14.376;2023-11-21T12:32:48;38.00;27.60;14.80
65556;PMS3003;52200;53.490;14.376;2023-11-21T12:35:16;45.00;33.80;17.20
65556;PMS3003;52200;53.490;14.376;2023-11-21T12:37:44;39.00;27.80;13.00
65556;PMS3003;52200;53.490;14.376;2023-11-21T12:40:11;42.60;33.60;16.80
65556;PMS3003;52200;53.490;14.376;2023-11-21T12:42:44;30.80;24.60;14.60
65556;PMS3003;52200;53.490;14.376;2023-11-21T12:47:52;38.00;27.80;15.20
65556;PMS3003;52200;53.490;14.376;2023-11-21T12:50:22;31.60;25.40;13.00
65556;PMS3003;52200;53.490;14.376;2023-11-21T12:52:51;36.80;27.40;13.60
65556;PMS3003;52200;53.490;14.376;2023-11-21T12:55:19;36.00;25.40;14.40
65556;PMS3003;52200;53.490;14.376;2023-11-21T12:57:49;32.00;23.00;12.20
65556;PMS3003;52200;53.490;14.376;2023-11-21T13:00:31;27.60;18.20;10.20
65556;PMS3003;52200;53.490;14.376;2023-11-21T13:02:58;26.00;19.60;9.40
65556;PMS3003;52200;53.490;14.376;2023-11-21T13:05:28;32.80;23.00;12.00
65556;PMS3003;52200;53.490;14.376;2023-11-21T13:07:55;29.80;23.00;12.00
65556;PMS3003;52200;53.490;14.376;2023-11-21T13:10:25;23.00;17.60;10.60
65556;PMS3003;52200;53.490;14.376;2023-11-21T13:12:55;26.80;22.00;12.40
65556;PMS3003;52200;53.490;14.376;2023-11-21T13:15:23;34.40;23.20;11.40
65556;PMS3003;52200;53.490;14.376;2023-11-21T13:17:49;31.20;21.80;12.20
65556;PMS3003;52200;53.490;14.376;2023-11-21T13:20:16;25.80;21.40;10.40
65556;PMS3003;52200;53.490;14.376;2023-11-21T13:23:00;27.60;22.80;11.20
65556;PMS3003;52200;53.490;14.376;2023-11-21T13:25:33;28.20;23.00;12.80
65556;PMS3003;52200;53.490;14.376;2023-11-21T13:28:00;33.00;28.25;13.00
65556;PMS3003;52200;53.490;14.376;2023-11-21T13:30:25;28.80;22.60;11.40
65556;PMS3003;52200;53.490;14.376;2023-11-21T13:32:55;28.00;20.80;12.60
65556;PMS3003;52200;53.490;14.376;2023-11-21T13:35:22;32.60;23.00;12.00
65556;PMS3003;52200;53.490;14.376;2023-11-21T13:37:56;31.20;22.00;12.00
65556;PMS3003;52200;53.490;14.376;2023-11-21T13:40:25;28.80;22.80;13.80
65556;PMS3003;52200;53.490;14.376;2023-11-21T13:42:55;27.60;18.80;11.40
65556;PMS3003;52200;53.490;14.376;2023-11-21T13:45:24;35.80;21.60;11.20
65556;PMS3003;52200;53.490;14.376;2023-11-21T13:47:54;29.40;19.00;9.00
65556;PMS3003;52200;53.490;14.376;2023-11-21T13:50:26;32.00;25.80;13.20
65556;PMS3003;52200;53.490;14.376;2023-11-21T13:52:58;34.80;23.20;12.80
65556;PMS3003;52200;53.490;14.376;2023-11-21T13:55:28;32.80;22.60;12.00
65556;PMS3003;52200;53.490;14.376;2023-11-21T13:57:53;38.00;24.50;14.50
65556;PMS3003;52200;53.490;14.376;2023-11-21T14:00:19;33.00;20.00;13.00